sensor_id;sensor_type;location;lat;lon;timestamp;pressure;altitude;pressure_sealevel;temperature;humidity
77149;BME280;66122;47.130;16.844;2022-12-18T00:01:35;101241.16;;;-3.39;89.30
77149;BME280;66122;47.130;16.844;2022-12-18T00:04:04;101237.91;;;-3.32;89.82
77149;BME280;66122;47.130;16.844;2022-12-18T00:06:34;101234.53;;;-3.28;89.51
77149;BME280;66122;47.130;16.844;2022-12-18T00:09:03;101241.38;;;-3.30;89.42
77149;BME280;66122;47.130;16.844;2022-12-18T00:11:31;101203.09;;;-3.41;88.91
77149;BME280;66122;47.130;16.844;2022-12-18T00:13:59;101233.91;;;-3.19;88.58
77149;BME280;66122;47.130;16.844;2022-12-18T00:16:28;101214.44;;;-3.36;88.88
77149;BME280;66122;47.130;16.844;2022-12-18T00:18:58;101189.34;;;-3.39;88.67
77149;BME280;66122;47.130;16.844;2022-12-18T00:21:27;101221.19;;;-3.43;87.41
77149;BME280;66122;47.130;16.844;2022-12-18T00:23:55;101269.06;;;-3.29;87.88
77149;BME280;66122;47.130;16.844;2022-12-18T00:26:26;101224.19;;;-3.59;88.69
77149;BME280;66122;47.130;16.844;2022-12-18T00:29:02;101224.81;;;-3.69;87.98
77149;BME280;66122;47.130;16.844;2022-12-18T00:31:32;101234.41;;;-3.65;88.75
77149;BME280;66122;47.130;16.844;2022-12-18T00:34:01;101233.66;;;-3.61;88.54
77149;BME280;66122;47.130;16.844;2022-12-18T00:36:31;101257.50;;;-3.41;88.51
77149;BME280;66122;47.130;16.844;2022-12-18T00:39:01;101286.38;;;-3.28;88.64
77149;BME280;66122;47.130;16.844;2022-12-18T00:41:29;101288.19;;;-3.24;88.75
77149;BME280;66122;47.130;16.844;2022-12-18T00:44:17;101252.22;;;-3.44;88.85
77149;BME280;66122;47.130;16.844;2022-12-18T00:46:46;101257.88;;;-3.59;88.14
77149;BME280;66122;47.130;16.844;2022-12-18T00:49:17;101252.63;;;-3.62;88.63
77149;BME280;66122;47.130;16.844;2022-12-18T00:51:46;101299.00;;;-3.40;87.95
77149;BME280;66122;47.130;16.844;2022-12-18T00:54:14;101291.59;;;-3.58;87.58
77149;BME280;66122;47.130;16.844;2022-12-18T00:56:42;101259.22;;;-3.73;87.96
77149;BME280;66122;47.130;16.844;2022-12-18T00:59:16;101277.28;;;-3.76;88.83
77149;BME280;66122;47.130;16.844;2022-12-18T01:01:45;101272.66;;;-3.86;91.07
77149;BME280;66122;47.130;16.844;2022-12-18T01:04:13;101289.72;;;-3.93;91.52
77149;BME280;66122;47.130;16.844;2022-12-18T01:06:44;101307.50;;;-3.75;91.64
77149;BME280;66122;47.130;16.844;2022-12-18T01:09:11;101288.28;;;-3.83;91.36
77149;BME280;66122;47.130;16.844;2022-12-18T01:11:39;101306.81;;;-3.70;90.60
77149;BME280;66122;47.130;16.844;2022-12-18T01:14:07;101325.22;;;-3.59;90.24
77149;BME280;66122;47.130;16.844;2022-12-18T01:16:37;101293.28;;;-3.89;90.22
77149;BME280;66122;47.130;16.844;2022-12-18T01:19:04;101292.47;;;-3.87;90.07
77149;BME280;66122;47.130;16.844;2022-12-18T01:21:32;101282.72;;;-3.96;90.27
77149;BME280;66122;47.130;16.844;2022-12-18T01:24:04;101307.94;;;-3.90;89.30
77149;BME280;66122;47.130;16.844;2022-12-18T01:26:31;101275.09;;;-4.21;90.45
77149;BME280;66122;47.130;16.844;2022-12-18T01:28:59;101331.41;;;-3.84;90.66
77149;BME280;66122;47.130;16.844;2022-12-18T01:31:29;101300.78;;;-4.27;88.92
77149;BME280;66122;47.130;16.844;2022-12-18T01:33:57;101341.66;;;-4.15;88.42
77149;BME280;66122;47.130;16.844;2022-12-18T01:36:32;101296.16;;;-4.37;88.10
77149;BME280;66122;47.130;16.844;2022-12-18T01:39:02;101290.25;;;-4.33;88.35
77149;BME280;66122;47.130;16.844;2022-12-18T01:41:31;101344.59;;;-4.05;88.65
77149;BME280;66122;47.130;16.844;2022-12-18T01:49:53;101316.25;;;-4.28;89.01
77149;BME280;66122;47.130;16.844;2022-12-18T01:52:22;101356.88;;;-4.26;89.06
77149;BME280;66122;47.130;16.844;2022-12-18T01:54:51;101357.03;;;-4.48;90.06
77149;BME280;66122;47.130;16.844;2022-12-18T01:57:22;101306.28;;;-4.72;91.14
77149;BME280;66122;47.130;16.844;2022-12-18T01:59:52;101361.84;;;-4.32;91.50
77149;BME280;66122;47.130;16.844;2022-12-18T02:02:21;101348.91;;;-4.32;91.97
77149;BME280;66122;47.130;16.844;2022-12-18T02:04:49;101362.13;;;-4.23;90.69
77149;BME280;66122;47.130;16.844;2022-12-18T02:09:56;101337.22;;;-4.48;90.22
77149;BME280;66122;47.130;16.844;2022-12-18T02:12:49;101378.31;;;-4.02;90.67
77149;BME280;66122;47.130;16.844;2022-12-18T02:15:34;101352.31;;;-4.06;89.90
77149;BME280;66122;47.130;16.844;2022-12-18T02:18:17;101370.72;;;-3.97;89.29
77149;BME280;66122;47.130;16.844;2022-12-18T02:21:15;101358.59;;;-4.26;86.76
77149;BME280;66122;47.130;16.844;2022-12-18T02:24:09;101367.44;;;-4.47;88.25
77149;BME280;66122;47.130;16.844;2022-12-18T02:26:50;101343.59;;;-4.89;87.75
77149;BME280;66122;47.130;16.844;2022-12-18T02:29:49;101388.78;;;-4.52;86.88
77149;BME280;66122;47.130;16.844;2022-12-18T02:32:27;101353.44;;;-4.79;86.76
77149;BME280;66122;47.130;16.844;2022-12-18T02:34:58;101357.47;;;-4.87;86.14
77149;BME280;66122;47.130;16.844;2022-12-18T02:37:29;101396.84;;;-4.94;86.50
77149;BME280;66122;47.130;16.844;2022-12-18T02:40:03;101407.97;;;-4.71;87.15
77149;BME280;66122;47.130;16.844;2022-12-18T02:42:34;101410.81;;;-4.63;87.07
77149;BME280;66122;47.130;16.844;2022-12-18T02:45:04;101398.94;;;-4.84;88.20
77149;BME280;66122;47.130;16.844;2022-12-18T02:47:37;101415.97;;;-4.89;87.58
77149;BME280;66122;47.130;16.844;2022-12-18T02:53:33;101414.84;;;-4.72;87.42
77149;BME280;66122;47.130;16.844;2022-12-18T02:56:15;101415.78;;;-4.69;88.03
77149;BME280;66122;47.130;16.844;2022-12-18T02:58:56;101413.66;;;-4.81;87.77
77149;BME280;66122;47.130;16.844;2022-12-18T03:01:50;101426.53;;;-4.83;88.26
77149;BME280;66122;47.130;16.844;2022-12-18T03:04:35;101414.19;;;-4.90;88.98
77149;BME280;66122;47.130;16.844;2022-12-18T03:07:14;101422.91;;;-4.88;87.88
77149;BME280;66122;47.130;16.844;2022-12-18T03:09:46;101369.66;;;-5.08;87.98
77149;BME280;66122;47.130;16.844;2022-12-18T03:15:38;101415.81;;;-4.93;86.95
77149;BME280;66122;47.130;16.844;2022-12-18T03:18:34;101406.22;;;-4.97;85.80
77149;BME280;66122;47.130;16.844;2022-12-18T03:21:06;101389.50;;;-5.07;87.09
77149;BME280;66122;47.130;16.844;2022-12-18T03:23:42;101437.53;;;-4.88;87.07
77149;BME280;66122;47.130;16.844;2022-12-18T03:26:18;101400.53;;;-5.11;87.77
77149;BME280;66122;47.130;16.844;2022-12-18T03:28:55;101415.34;;;-5.07;88.34
77149;BME280;66122;47.130;16.844;2022-12-18T03:31:27;101392.56;;;-5.17;86.39
77149;BME280;66122;47.130;16.844;2022-12-18T03:34:04;101446.69;;;-4.98;87.84
77149;BME280;66122;47.130;16.844;2022-12-18T03:36:41;101448.47;;;-4.95;87.66
77149;BME280;66122;47.130;16.844;2022-12-18T03:39:09;101451.94;;;-4.95;87.93
77149;BME280;66122;47.130;16.844;2022-12-18T03:50:22;101449.22;;;-4.99;87.38
77149;BME280;66122;47.130;16.844;2022-12-18T03:53:24;101415.13;;;-5.13;87.39
77149;BME280;66122;47.130;16.844;2022-12-18T03:55:55;101421.38;;;-5.06;88.41
77149;BME280;66122;47.130;16.844;2022-12-18T03:58:27;101436.34;;;-4.98;87.80
77149;BME280;66122;47.130;16.844;2022-12-18T04:01:14;101393.22;;;-5.23;87.83
77149;BME280;66122;47.130;16.844;2022-12-18T04:03:46;101421.16;;;-5.13;87.31
77149;BME280;66122;47.130;16.844;2022-12-18T04:06:17;101464.81;;;-4.96;87.21
77149;BME280;66122;47.130;16.844;2022-12-18T04:08:46;101406.91;;;-5.25;87.64
77149;BME280;66122;47.130;16.844;2022-12-18T04:11:18;101449.47;;;-4.92;87.66
77149;BME280;66122;47.130;16.844;2022-12-18T04:13:47;101424.97;;;-5.27;86.85
77149;BME280;66122;47.130;16.844;2022-12-18T04:16:20;101456.91;;;-5.01;87.51
77149;BME280;66122;47.130;16.844;2022-12-18T04:18:51;101413.47;;;-5.35;86.89
77149;BME280;66122;47.130;16.844;2022-12-18T04:21:21;101437.91;;;-5.25;86.58
77149;BME280;66122;47.130;16.844;2022-12-18T04:23:49;101427.34;;;-5.31;86.80
77149;BME280;66122;47.130;16.844;2022-12-18T04:26:20;101454.69;;;-5.14;86.58
77149;BME280;66122;47.130;16.844;2022-12-18T04:29:06;101464.97;;;-5.16;86.94
77149;BME280;66122;47.130;16.844;2022-12-18T04:31:34;101480.19;;;-5.23;87.10
77149;BME280;66122;47.130;16.844;2022-12-18T04:34:02;101445.56;;;-5.28;87.17
77149;BME280;66122;47.130;16.844;2022-12-18T04:36:36;101450.81;;;-5.25;86.01
77149;BME280;66122;47.130;16.844;2022-12-18T04:39:04;101450.38;;;-5.60;86.35
77149;BME280;66122;47.130;16.844;2022-12-18T04:41:32;101429.75;;;-5.60;85.85
77149;BME280;66122;47.130;16.844;2022-12-18T04:44:00;101446.16;;;-5.80;86.30
77149;BME280;66122;47.130;16.844;2022-12-18T04:46:27;101455.91;;;-5.73;89.81
77149;BME280;66122;47.130;16.844;2022-12-18T04:48:55;101509.91;;;-5.57;88.44
77149;BME280;66122;47.130;16.844;2022-12-18T04:51:22;101457.75;;;-5.93;87.18
77149;BME280;66122;47.130;16.844;2022-12-18T04:53:53;101460.41;;;-5.91;87.23
77149;BME280;66122;47.130;16.844;2022-12-18T04:56:21;101502.38;;;-5.51;87.31
77149;BME280;66122;47.130;16.844;2022-12-18T04:58:49;101461.19;;;-5.70;87.47
77149;BME280;66122;47.130;16.844;2022-12-18T05:01:17;101472.44;;;-5.68;87.28
77149;BME280;66122;47.130;16.844;2022-12-18T05:03:45;101494.41;;;-5.57;89.92
77149;BME280;66122;47.130;16.844;2022-12-18T05:06:13;101497.97;;;-5.53;89.35
77149;BME280;66122;47.130;16.844;2022-12-18T05:08:41;101502.22;;;-5.55;89.55
77149;BME280;66122;47.130;16.844;2022-12-18T05:11:11;101522.09;;;-5.30;90.25
77149;BME280;66122;47.130;16.844;2022-12-18T05:13:38;101522.47;;;-5.21;90.09
77149;BME280;66122;47.130;16.844;2022-12-18T05:16:07;101504.53;;;-5.40;90.61
77149;BME280;66122;47.130;16.844;2022-12-18T05:18:35;101483.31;;;-5.76;88.04
77149;BME280;66122;47.130;16.844;2022-12-18T05:21:04;101485.94;;;-5.97;86.89
77149;BME280;66122;47.130;16.844;2022-12-18T05:23:31;101538.66;;;-5.91;86.91
77149;BME280;66122;47.130;16.844;2022-12-18T05:26:04;101538.91;;;-5.84;86.70
77149;BME280;66122;47.130;16.844;2022-12-18T05:28:34;101506.56;;;-5.97;87.59
77149;BME280;66122;47.130;16.844;2022-12-18T05:31:03;101548.84;;;-5.73;87.58
77149;BME280;66122;47.130;16.844;2022-12-18T05:33:34;101535.09;;;-5.72;87.67
77149;BME280;66122;47.130;16.844;2022-12-18T05:36:03;101523.41;;;-5.64;88.40
77149;BME280;66122;47.130;16.844;2022-12-18T05:38:32;101520.22;;;-5.57;88.07
77149;BME280;66122;47.130;16.844;2022-12-18T05:41:00;101541.34;;;-5.44;87.96
77149;BME280;66122;47.130;16.844;2022-12-18T05:43:28;101529.09;;;-5.50;87.31
77149;BME280;66122;47.130;16.844;2022-12-18T05:45:56;101562.56;;;-5.31;87.31
77149;BME280;66122;47.130;16.844;2022-12-18T05:48:25;101530.56;;;-5.57;86.31
77149;BME280;66122;47.130;16.844;2022-12-18T05:50:53;101561.38;;;-5.39;86.17
77149;BME280;66122;47.130;16.844;2022-12-18T05:53:20;101532.25;;;-5.57;86.28
77149;BME280;66122;47.130;16.844;2022-12-18T05:55:48;101521.31;;;-5.72;86.97
77149;BME280;66122;47.130;16.844;2022-12-18T05:58:16;101548.88;;;-5.51;86.81
77149;BME280;66122;47.130;16.844;2022-12-18T06:00:45;101573.34;;;-5.62;87.17
77149;BME280;66122;47.130;16.844;2022-12-18T06:03:13;101504.47;;;-6.07;87.91
77149;BME280;66122;47.130;16.844;2022-12-18T06:05:43;101574.59;;;-5.95;87.42
77149;BME280;66122;47.130;16.844;2022-12-18T06:08:12;101524.31;;;-6.25;87.65
77149;BME280;66122;47.130;16.844;2022-12-18T06:10:41;101536.94;;;-6.12;86.20
77149;BME280;66122;47.130;16.844;2022-12-18T06:13:08;101525.53;;;-6.17;85.69
77149;BME280;66122;47.130;16.844;2022-12-18T06:15:36;101570.47;;;-6.12;86.20
77149;BME280;66122;47.130;16.844;2022-12-18T06:18:04;101526.47;;;-6.36;86.64
77149;BME280;66122;47.130;16.844;2022-12-18T06:20:32;101541.06;;;-6.56;85.90
77149;BME280;66122;47.130;16.844;2022-12-18T06:23:00;101551.03;;;-6.44;87.40
77149;BME280;66122;47.130;16.844;2022-12-18T06:25:28;101601.41;;;-6.12;88.54
77149;BME280;66122;47.130;16.844;2022-12-18T06:27:55;101583.06;;;-6.18;89.33
77149;BME280;66122;47.130;16.844;2022-12-18T06:30:23;101544.25;;;-6.42;88.40
77149;BME280;66122;47.130;16.844;2022-12-18T06:32:51;101609.28;;;-6.09;88.30
77149;BME280;66122;47.130;16.844;2022-12-18T06:35:23;101583.06;;;-5.99;89.25
77149;BME280;66122;47.130;16.844;2022-12-18T06:37:50;101607.88;;;-5.80;87.93
77149;BME280;66122;47.130;16.844;2022-12-18T06:40:18;101590.91;;;-5.96;88.16
77149;BME280;66122;47.130;16.844;2022-12-18T06:42:46;101576.19;;;-5.99;88.50
77149;BME280;66122;47.130;16.844;2022-12-18T06:45:15;101618.19;;;-5.80;88.75
77149;BME280;66122;47.130;16.844;2022-12-18T06:47:43;101589.13;;;-5.97;89.13
77149;BME280;66122;47.130;16.844;2022-12-18T06:50:11;101585.66;;;-5.98;88.37
77149;BME280;66122;47.130;16.844;2022-12-18T06:52:39;101566.88;;;-5.95;88.48
77149;BME280;66122;47.130;16.844;2022-12-18T06:55:11;101603.78;;;-5.75;88.86
77149;BME280;66122;47.130;16.844;2022-12-18T06:57:38;101582.66;;;-5.87;88.21
77149;BME280;66122;47.130;16.844;2022-12-18T07:00:07;101610.63;;;-5.76;89.24
77149;BME280;66122;47.130;16.844;2022-12-18T07:02:35;101575.03;;;-5.84;88.66
77149;BME280;66122;47.130;16.844;2022-12-18T07:05:03;101638.28;;;-5.53;89.46
77149;BME280;66122;47.130;16.844;2022-12-18T07:07:37;101658.69;;;-5.38;88.90
77149;BME280;66122;47.130;16.844;2022-12-18T07:10:05;101600.69;;;-5.67;89.16
77149;BME280;66122;47.130;16.844;2022-12-18T07:12:33;101646.41;;;-5.43;89.08
77149;BME280;66122;47.130;16.844;2022-12-18T07:15:00;101634.16;;;-5.49;88.66
77149;BME280;66122;47.130;16.844;2022-12-18T07:17:28;101635.03;;;-5.48;88.83
77149;BME280;66122;47.130;16.844;2022-12-18T07:19:56;101663.91;;;-5.16;88.42
77149;BME280;66122;47.130;16.844;2022-12-18T07:22:25;101679.09;;;-4.80;87.82
77149;BME280;66122;47.130;16.844;2022-12-18T07:24:53;101650.44;;;-4.64;87.63
77149;BME280;66122;47.130;16.844;2022-12-18T07:27:21;101674.78;;;-4.35;86.78
77149;BME280;66122;47.130;16.844;2022-12-18T07:29:49;101658.81;;;-4.47;86.16
77149;BME280;66122;47.130;16.844;2022-12-18T07:32:16;101659.97;;;-4.39;86.31
77149;BME280;66122;47.130;16.844;2022-12-18T07:34:44;101663.53;;;-4.59;86.76
77149;BME280;66122;47.130;16.844;2022-12-18T07:37:13;101636.63;;;-4.87;87.31
77149;BME280;66122;47.130;16.844;2022-12-18T07:39:41;101696.19;;;-4.39;87.11
77149;BME280;66122;47.130;16.844;2022-12-18T07:42:08;101620.28;;;-4.86;86.98
77149;BME280;66122;47.130;16.844;2022-12-18T07:44:54;101664.00;;;-4.47;87.61
77149;BME280;66122;47.130;16.844;2022-12-18T07:47:22;101656.53;;;-4.40;87.69
77149;BME280;66122;47.130;16.844;2022-12-18T07:49:50;101710.78;;;-4.17;87.46
77149;BME280;66122;47.130;16.844;2022-12-18T07:52:18;101674.63;;;-4.16;87.59
77149;BME280;66122;47.130;16.844;2022-12-18T07:54:52;101656.72;;;-4.10;87.30
77149;BME280;66122;47.130;16.844;2022-12-18T07:57:19;101696.91;;;-3.48;86.31
77149;BME280;66122;47.130;16.844;2022-12-18T08:00:08;101696.22;;;-3.16;85.80
77149;BME280;66122;47.130;16.844;2022-12-18T08:02:38;101666.34;;;-2.78;83.96
77149;BME280;66122;47.130;16.844;2022-12-18T08:05:06;101715.44;;;-2.27;82.61
77149;BME280;66122;47.130;16.844;2022-12-18T08:07:34;101665.16;;;-2.60;84.10
77149;BME280;66122;47.130;16.844;2022-12-18T08:10:01;101684.13;;;-2.33;84.12
77149;BME280;66122;47.130;16.844;2022-12-18T08:12:30;101724.47;;;-1.53;82.18
77149;BME280;66122;47.130;16.844;2022-12-18T08:14:57;101688.63;;;-1.65;81.36
77149;BME280;66122;47.130;16.844;2022-12-18T08:17:25;101668.22;;;-1.15;80.84
77149;BME280;66122;47.130;16.844;2022-12-18T08:19:53;101658.84;;;-0.71;78.03
77149;BME280;66122;47.130;16.844;2022-12-18T08:22:20;101683.06;;;-0.75;77.16
77149;BME280;66122;47.130;16.844;2022-12-18T08:24:48;101658.13;;;-0.65;76.64
77149;BME280;66122;47.130;16.844;2022-12-18T08:27:15;101695.75;;;-0.51;77.69
77149;BME280;66122;47.130;16.844;2022-12-18T08:29:58;101726.06;;;-0.14;75.85
77149;BME280;66122;47.130;16.844;2022-12-18T08:32:27;101721.00;;;-0.47;79.43
77149;BME280;66122;47.130;16.844;2022-12-18T08:34:55;101688.00;;;-0.48;80.21
77149;BME280;66122;47.130;16.844;2022-12-18T08:37:22;101733.09;;;-0.49;79.63
77149;BME280;66122;47.130;16.844;2022-12-18T08:39:50;101743.03;;;-0.70;79.18
77149;BME280;66122;47.130;16.844;2022-12-18T08:42:18;101740.59;;;-0.63;79.17
77149;BME280;66122;47.130;16.844;2022-12-18T08:45:05;101711.66;;;-0.76;79.03
77149;BME280;66122;47.130;16.844;2022-12-18T08:47:32;101756.97;;;-0.31;78.04
77149;BME280;66122;47.130;16.844;2022-12-18T08:50:00;101749.66;;;-0.07;77.58
77149;BME280;66122;47.130;16.844;2022-12-18T08:52:28;101748.53;;;-0.19;76.75
77149;BME280;66122;47.130;16.844;2022-12-18T08:54:55;101719.78;;;-0.24;77.21
77149;BME280;66122;47.130;16.844;2022-12-18T08:57:23;101742.44;;;-0.20;78.27
77149;BME280;66122;47.130;16.844;2022-12-18T08:59:51;101748.91;;;-0.42;78.47
77149;BME280;66122;47.130;16.844;2022-12-18T09:02:19;101753.53;;;-0.30;77.89
77149;BME280;66122;47.130;16.844;2022-12-18T09:04:47;101767.44;;;-0.29;79.14
77149;BME280;66122;47.130;16.844;2022-12-18T09:07:23;101741.44;;;-0.65;79.55
77149;BME280;66122;47.130;16.844;2022-12-18T09:09:50;101745.88;;;-0.21;79.10
77149;BME280;66122;47.130;16.844;2022-12-18T09:12:18;101764.19;;;0.23;76.29
77149;BME280;66122;47.130;16.844;2022-12-18T09:14:45;101706.16;;;0.81;73.60
77149;BME280;66122;47.130;16.844;2022-12-18T09:17:13;101691.03;;;1.13;72.88
77149;BME280;66122;47.130;16.844;2022-12-18T09:19:41;101722.50;;;1.82;69.03
77149;BME280;66122;47.130;16.844;2022-12-18T09:22:10;101689.75;;;2.09;68.29
77149;BME280;66122;47.130;16.844;2022-12-18T09:24:37;101685.72;;;1.67;69.02
77149;BME280;66122;47.130;16.844;2022-12-18T09:27:05;101715.59;;;1.87;68.26
77149;BME280;66122;47.130;16.844;2022-12-18T09:29:34;101717.97;;;1.68;68.63
77149;BME280;66122;47.130;16.844;2022-12-18T09:32:02;101710.88;;;1.58;69.07
77149;BME280;66122;47.130;16.844;2022-12-18T09:34:30;101679.06;;;1.27;69.76
77149;BME280;66122;47.130;16.844;2022-12-18T09:36:58;101724.38;;;1.31;69.85
77149;BME280;66122;47.130;16.844;2022-12-18T09:39:25;101711.09;;;1.14;69.90
77149;BME280;66122;47.130;16.844;2022-12-18T09:41:55;101687.00;;;1.33;69.45
77149;BME280;66122;47.130;16.844;2022-12-18T09:47:10;101711.34;;;1.95;67.77
77149;BME280;66122;47.130;16.844;2022-12-18T09:49:42;101720.94;;;1.95;67.54
77149;BME280;66122;47.130;16.844;2022-12-18T09:52:33;101746.84;;;2.48;66.53
77149;BME280;66122;47.130;16.844;2022-12-18T09:57:49;101696.00;;;2.24;65.24
77149;BME280;66122;47.130;16.844;2022-12-18T10:00:20;101721.22;;;2.18;66.29
77149;BME280;66122;47.130;16.844;2022-12-18T10:02:49;101711.81;;;2.30;66.27
77149;BME280;66122;47.130;16.844;2022-12-18T10:05:42;101711.91;;;2.41;65.56
77149;BME280;66122;47.130;16.844;2022-12-18T10:11:32;101733.94;;;2.63;63.93
77149;BME280;66122;47.130;16.844;2022-12-18T10:16:51;101741.97;;;2.83;63.36
77149;BME280;66122;47.130;16.844;2022-12-18T10:25:02;101721.88;;;4.12;59.74
77149;BME280;66122;47.130;16.844;2022-12-18T10:27:33;101731.22;;;3.57;61.42
77149;BME280;66122;47.130;16.844;2022-12-18T10:30:11;101716.38;;;3.57;61.09
77149;BME280;66122;47.130;16.844;2022-12-18T10:32:40;101703.34;;;3.71;60.17
77149;BME280;66122;47.130;16.844;2022-12-18T10:35:24;101708.53;;;3.62;59.93
77149;BME280;66122;47.130;16.844;2022-12-18T10:38:07;101702.97;;;3.13;61.39
77149;BME280;66122;47.130;16.844;2022-12-18T10:41:06;101718.78;;;3.25;62.09
77149;BME280;66122;47.130;16.844;2022-12-18T10:43:39;101690.88;;;3.32;60.76
77149;BME280;66122;47.130;16.844;2022-12-18T10:48:40;101651.84;;;3.85;58.83
77149;BME280;66122;47.130;16.844;2022-12-18T10:51:31;101667.75;;;4.32;56.90
77149;BME280;66122;47.130;16.844;2022-12-18T10:54:06;101692.13;;;6.07;52.70
77149;BME280;66122;47.130;16.844;2022-12-18T10:56:40;101659.91;;;5.17;54.00
77149;BME280;66122;47.130;16.844;2022-12-18T10:59:13;101672.06;;;4.10;55.70
77149;BME280;66122;47.130;16.844;2022-12-18T11:01:59;101648.47;;;4.19;55.24
77149;BME280;66122;47.130;16.844;2022-12-18T11:04:30;101692.25;;;4.31;54.79
77149;BME280;66122;47.130;16.844;2022-12-18T11:07:03;101689.66;;;4.69;55.33
77149;BME280;66122;47.130;16.844;2022-12-18T11:09:39;101669.53;;;4.51;54.67
77149;BME280;66122;47.130;16.844;2022-12-18T11:12:18;101671.28;;;4.58;54.67
77149;BME280;66122;47.130;16.844;2022-12-18T11:14:49;101687.06;;;4.83;54.23
77149;BME280;66122;47.130;16.844;2022-12-18T11:17:35;101638.03;;;5.10;53.97
77149;BME280;66122;47.130;16.844;2022-12-18T11:22:57;101649.13;;;6.10;49.43
77149;BME280;66122;47.130;16.844;2022-12-18T11:25:25;101660.81;;;6.94;48.30
77149;BME280;66122;47.130;16.844;2022-12-18T11:31:09;101675.44;;;7.29;45.63
77149;BME280;66122;47.130;16.844;2022-12-18T11:33:42;101663.13;;;7.34;45.57
77149;BME280;66122;47.130;16.844;2022-12-18T11:36:36;101676.03;;;7.60;45.37
77149;BME280;66122;47.130;16.844;2022-12-18T11:39:15;101645.38;;;8.20;44.43
77149;BME280;66122;47.130;16.844;2022-12-18T11:42:14;101637.34;;;7.57;44.22
77149;BME280;66122;47.130;16.844;2022-12-18T11:50:17;101643.63;;;7.47;44.75
77149;BME280;66122;47.130;16.844;2022-12-18T11:52:46;101624.28;;;8.15;43.40
77149;BME280;66122;47.130;16.844;2022-12-18T12:10:08;101681.16;;;6.77;44.83
77149;BME280;66122;47.130;16.844;2022-12-18T12:12:55;101676.53;;;5.34;48.35
77149;BME280;66122;47.130;16.844;2022-12-18T12:15:41;101674.81;;;4.88;49.22
77149;BME280;66122;47.130;16.844;2022-12-18T12:18:26;101636.00;;;3.58;53.33
77149;BME280;66122;47.130;16.844;2022-12-18T12:37:49;101657.63;;;2.23;61.40
77149;BME280;66122;47.130;16.844;2022-12-18T12:40:24;101622.91;;;2.37;61.50
77149;BME280;66122;47.130;16.844;2022-12-18T12:43:20;101644.09;;;2.64;60.57
77149;BME280;66122;47.130;16.844;2022-12-18T12:45:54;101654.91;;;2.11;62.67
77149;BME280;66122;47.130;16.844;2022-12-18T12:51:08;101598.38;;;2.22;61.83
77149;BME280;66122;47.130;16.844;2022-12-18T12:53:39;101649.66;;;2.10;62.25
77149;BME280;66122;47.130;16.844;2022-12-18T12:56:10;101620.94;;;2.14;63.13
77149;BME280;66122;47.130;16.844;2022-12-18T13:01:28;101611.47;;;1.48;63.50
77149;BME280;66122;47.130;16.844;2022-12-18T13:06:50;101650.81;;;1.02;66.52
77149;BME280;66122;47.130;16.844;2022-12-18T13:09:20;101628.69;;;0.75;67.94
77149;BME280;66122;47.130;16.844;2022-12-18T13:11:48;101620.44;;;0.50;67.96
77149;BME280;66122;47.130;16.844;2022-12-18T13:14:37;101629.13;;;0.49;68.18
77149;BME280;66122;47.130;16.844;2022-12-18T13:20:02;101672.22;;;0.30;71.00
77149;BME280;66122;47.130;16.844;2022-12-18T13:22:35;101641.53;;;0.14;69.81
77149;BME280;66122;47.130;16.844;2022-12-18T13:25:30;101680.03;;;0.28;70.55
77149;BME280;66122;47.130;16.844;2022-12-18T13:38:39;101707.94;;;-0.10;73.81
77149;BME280;66122;47.130;16.844;2022-12-18T13:43:53;101699.28;;;-0.09;73.39
77149;BME280;66122;47.130;16.844;2022-12-18T13:46:42;101711.50;;;-0.05;74.24
77149;BME280;66122;47.130;16.844;2022-12-18T13:51:43;101701.31;;;0.08;73.75
77149;BME280;66122;47.130;16.844;2022-12-18T13:54:39;101713.38;;;0.03;74.18
77149;BME280;66122;47.130;16.844;2022-12-18T13:59:55;101666.66;;;-0.32;74.56
77149;BME280;66122;47.130;16.844;2022-12-18T14:02:25;101674.72;;;-0.20;73.76
77149;BME280;66122;47.130;16.844;2022-12-18T14:04:54;101682.81;;;-0.06;73.70
77149;BME280;66122;47.130;16.844;2022-12-18T14:07:26;101688.00;;;-0.06;74.97
77149;BME280;66122;47.130;16.844;2022-12-18T14:10:00;101659.09;;;-0.20;73.76
77149;BME280;66122;47.130;16.844;2022-12-18T14:12:50;101696.50;;;-0.16;74.31
77149;BME280;66122;47.130;16.844;2022-12-18T14:19:04;101717.94;;;-0.28;75.90
77149;BME280;66122;47.130;16.844;2022-12-18T14:21:26;101719.38;;;-0.42;76.70
77149;BME280;66122;47.130;16.844;2022-12-18T14:24:17;101715.44;;;-0.62;76.77
77149;BME280;66122;47.130;16.844;2022-12-18T14:26:47;101695.97;;;-0.80;76.97
77149;BME280;66122;47.130;16.844;2022-12-18T14:29:24;101716.09;;;-0.71;76.36
77149;BME280;66122;47.130;16.844;2022-12-18T14:32:11;101680.00;;;-0.95;77.35
77149;BME280;66122;47.130;16.844;2022-12-18T14:34:49;101700.88;;;-0.92;77.25
77149;BME280;66122;47.130;16.844;2022-12-18T14:37:22;101711.38;;;-0.89;78.27
77149;BME280;66122;47.130;16.844;2022-12-18T14:42:21;101720.00;;;-0.90;78.39
77149;BME280;66122;47.130;16.844;2022-12-18T14:44:49;101708.41;;;-1.04;78.83
77149;BME280;66122;47.130;16.844;2022-12-18T14:47:36;101742.50;;;-0.92;79.58
77149;BME280;66122;47.130;16.844;2022-12-18T14:50:13;101740.41;;;-1.06;79.84
77149;BME280;66122;47.130;16.844;2022-12-18T14:52:41;101716.53;;;-1.25;79.41
77149;BME280;66122;47.130;16.844;2022-12-18T14:55:18;101719.00;;;-1.29;79.46
77149;BME280;66122;47.130;16.844;2022-12-18T14:57:51;101735.75;;;-1.20;79.64
77149;BME280;66122;47.130;16.844;2022-12-18T15:00:24;101708.97;;;-1.48;79.90
77149;BME280;66122;47.130;16.844;2022-12-18T15:02:54;101725.50;;;-1.46;79.37
77149;BME280;66122;47.130;16.844;2022-12-18T15:05:28;101771.84;;;-1.32;79.74
77149;BME280;66122;47.130;16.844;2022-12-18T15:07:58;101757.63;;;-1.44;79.80
77149;BME280;66122;47.130;16.844;2022-12-18T15:10:27;101773.41;;;-1.38;80.31
77149;BME280;66122;47.130;16.844;2022-12-18T15:23:46;101735.34;;;-1.98;82.38